createdAt,value
2019-05-28T00:00:13.592Z,27.37
2019-05-28T00:02:42.249Z,17.17
2019-05-28T00:05:10.977Z,14.53
2019-05-28T00:07:39.701Z,15.60
2019-05-28T00:10:09.083Z,17.83
2019-05-28T00:12:38.001Z,18.10
2019-05-28T00:15:07.418Z,14.70
2019-05-28T00:17:36.074Z,15.60
2019-05-28T00:20:07.865Z,15.07
2019-05-28T00:22:36.509Z,16.40
2019-05-28T00:25:06.722Z,15.80
2019-05-28T00:27:35.464Z,17.97
2019-05-28T00:30:19.244Z,18.10
2019-05-28T00:32:39.111Z,22.83
2019-05-28T00:35:08.250Z,26.63
2019-05-28T00:37:36.930Z,26.27
2019-05-28T00:40:06.219Z,29.10
2019-05-28T00:42:34.898Z,29.93
2019-05-28T00:45:04.153Z,34.67
2019-05-28T00:47:32.664Z,34.00
2019-05-28T00:50:01.381Z,26.80
2019-05-28T00:52:30.314Z,30.40
2019-05-28T00:54:58.938Z,39.30
2019-05-28T00:57:27.980Z,38.27
2019-05-28T00:59:57.293Z,29.40
2019-05-28T01:02:26.215Z,34.77
2019-05-28T01:04:54.816Z,37.40
2019-05-28T01:07:23.458Z,27.07
2019-05-28T01:09:52.190Z,26.23
2019-05-28T01:12:20.855Z,22.10
2019-05-28T01:14:49.398Z,15.17
2019-05-28T01:17:17.962Z,25.47
2019-05-28T01:19:46.823Z,14.03
2019-05-28T01:22:15.454Z,12.10
2019-05-28T01:24:44.050Z,14.37
2019-05-28T01:27:12.696Z,18.33
2019-05-28T01:29:41.290Z,18.47
2019-05-28T01:32:09.925Z,15.50
2019-05-28T01:34:39.006Z,18.67
2019-05-28T01:37:07.554Z,20.27
2019-05-28T01:39:36.199Z,17.63
2019-05-28T01:42:04.933Z,18.37
2019-05-28T01:44:33.508Z,14.20
2019-05-28T01:47:02.093Z,14.50
2019-05-28T01:49:30.662Z,16.37
2019-05-28T01:51:59.263Z,13.40
2019-05-28T01:54:27.864Z,11.83
2019-05-28T01:56:56.698Z,14.10
2019-05-28T01:59:25.286Z,11.50
2019-05-28T02:01:54.007Z,10.47
2019-05-28T02:04:22.574Z,19.40
2019-05-28T02:06:51.226Z,9.93
2019-05-28T02:09:19.849Z,16.23
2019-05-28T02:11:48.438Z,10.60
2019-05-28T02:14:17.012Z,11.13
2019-05-28T02:16:45.588Z,15.07
2019-05-28T02:19:14.152Z,16.63
2019-05-28T02:21:42.760Z,14.03
2019-05-28T02:24:11.328Z,12.13
2019-05-28T02:26:40.046Z,7.40
2019-05-28T02:29:08.606Z,9.27
2019-05-28T02:31:37.245Z,9.60
2019-05-28T02:34:05.830Z,17.87
2019-05-28T02:36:34.472Z,12.83
2019-05-28T02:39:03.122Z,17.27
2019-05-28T02:41:31.968Z,16.63
2019-05-28T02:44:00.552Z,12.43
2019-05-28T02:46:29.114Z,11.17
2019-05-28T02:48:58.054Z,17.53
2019-05-28T02:51:26.902Z,15.20
2019-05-28T02:53:55.913Z,15.17
2019-05-28T02:56:26.444Z,14.83
2019-05-28T02:58:57.529Z,9.63
2019-05-28T03:01:42.757Z,11.07
2019-05-28T03:03:57.881Z,8.23
2019-05-28T03:06:28.393Z,10.87
2019-05-28T03:08:57.334Z,9.50
2019-05-28T03:11:26.171Z,10.47
2019-05-28T03:13:55.300Z,9.07
2019-05-28T03:16:27.259Z,12.27
2019-05-28T03:18:58.058Z,11.23
2019-05-28T03:21:27.363Z,6.30
2019-05-28T03:23:59.162Z,10.23
2019-05-28T03:26:28.187Z,13.30
2019-05-28T03:28:57.349Z,8.63
2019-05-28T03:31:25.962Z,15.73
2019-05-28T03:33:54.724Z,14.03
2019-05-28T03:36:27.073Z,11.17
2019-05-28T03:38:57.482Z,13.37
2019-05-28T03:41:26.056Z,14.07
2019-05-28T03:43:54.924Z,11.70
2019-05-28T03:46:23.805Z,16.40
2019-05-28T03:48:52.363Z,13.50
2019-05-28T03:51:21.010Z,13.87
2019-05-28T03:53:49.589Z,18.13
2019-05-28T03:56:18.689Z,16.23
2019-05-28T03:58:47.255Z,17.73
2019-05-28T04:01:15.921Z,16.40
2019-05-28T04:03:44.567Z,18.90
2019-05-28T04:06:13.176Z,15.67
2019-05-28T04:08:42.119Z,25.47
2019-05-28T04:11:10.724Z,23.60
2019-05-28T04:13:39.302Z,21.87
2019-05-28T04:16:07.890Z,26.30
2019-05-28T04:18:36.523Z,21.80
2019-05-28T04:21:05.264Z,34.33
2019-05-28T04:23:33.857Z,28.90
2019-05-28T04:26:02.579Z,27.23
2019-05-28T04:28:31.507Z,37.50
2019-05-28T04:31:00.098Z,31.13
2019-05-28T04:33:28.656Z,26.00
2019-05-28T04:35:57.273Z,30.70
2019-05-28T04:38:25.803Z,30.20
2019-05-28T04:40:54.390Z,31.13
2019-05-28T04:43:22.959Z,22.37
2019-05-28T04:45:51.547Z,35.60
2019-05-28T04:48:20.209Z,32.77
2019-05-28T04:50:48.800Z,33.67
2019-05-28T04:53:17.454Z,26.93
2019-05-28T04:55:46.001Z,25.97
2019-05-28T04:58:14.581Z,31.80
2019-05-28T05:00:43.208Z,24.53
2019-05-28T05:03:11.794Z,28.97
2019-05-28T05:05:40.661Z,28.07
2019-05-28T05:08:09.237Z,29.03
2019-05-28T05:10:37.786Z,20.33
2019-05-28T05:13:06.373Z,26.50
2019-05-28T05:15:35.344Z,23.47
2019-05-28T05:18:04.313Z,19.97
2019-05-28T05:20:33.347Z,21.43
2019-05-28T05:23:01.957Z,20.47
2019-05-28T05:25:30.683Z,14.13
2019-05-28T05:27:59.605Z,18.97
2019-05-28T05:30:28.211Z,15.90
2019-05-28T05:32:57.099Z,16.83
2019-05-28T05:35:26.164Z,18.03
2019-05-28T05:37:54.758Z,13.70
2019-05-28T05:40:23.989Z,9.17
2019-05-28T05:42:52.639Z,9.47
2019-05-28T05:45:21.351Z,7.77
2019-05-28T05:47:49.979Z,13.53
2019-05-28T05:50:18.717Z,7.97
2019-05-28T05:52:47.290Z,12.43
2019-05-28T05:55:16.319Z,6.57
2019-05-28T05:57:44.954Z,7.53
2019-05-28T06:00:15.365Z,7.63
2019-05-28T06:02:43.990Z,8.53
2019-05-28T06:05:13.016Z,8.43
2019-05-28T06:07:41.600Z,9.30
2019-05-28T06:10:10.387Z,5.10
2019-05-28T06:12:38.939Z,5.33
2019-05-28T06:15:08.368Z,9.73
2019-05-28T06:17:37.022Z,11.70
2019-05-28T06:20:07.669Z,3.90
2019-05-28T06:22:36.731Z,4.77
2019-05-28T06:25:06.466Z,2.33
2019-05-28T06:27:36.291Z,3.33
2019-05-28T06:30:08.067Z,3.60
2019-05-28T06:32:38.293Z,3.63
2019-05-28T06:35:07.760Z,1.10
2019-05-28T06:37:36.361Z,6.40
2019-05-28T06:40:07.397Z,1.90
2019-05-28T06:42:39.264Z,2.33
2019-05-28T06:45:08.333Z,2.30
2019-05-28T06:47:37.028Z,4.60
2019-05-28T06:50:12.143Z,5.67
2019-05-28T06:52:41.208Z,5.53
2019-05-28T06:55:11.118Z,4.57
2019-05-28T06:57:39.702Z,8.40
2019-05-28T07:00:09.955Z,5.77
2019-05-28T07:02:38.494Z,8.77
2019-05-28T07:05:07.262Z,6.87
2019-05-28T07:07:35.922Z,9.27
2019-05-28T07:10:05.946Z,5.70
2019-05-28T07:12:34.588Z,4.03
2019-05-28T07:15:03.639Z,7.50
2019-05-28T07:17:32.336Z,7.73
2019-05-28T07:20:01.250Z,5.87
2019-05-28T07:22:29.951Z,5.33
2019-05-28T07:24:58.532Z,4.50
2019-05-28T07:27:27.094Z,5.10
2019-05-28T07:29:55.764Z,3.97
2019-05-28T07:32:24.320Z,4.80
2019-05-28T07:34:52.979Z,4.83
2019-05-28T07:37:21.595Z,7.13
2019-05-28T07:39:50.184Z,4.27
2019-05-28T07:42:31.846Z,5.37
2019-05-28T07:44:48.972Z,5.43
2019-05-28T07:47:17.561Z,6.50
2019-05-28T07:49:46.564Z,6.10
2019-05-28T07:52:15.447Z,4.63
2019-05-28T07:54:44.003Z,4.43
2019-05-28T07:57:12.941Z,2.77
2019-05-28T07:59:41.836Z,4.00
2019-05-28T08:02:10.468Z,4.00
2019-05-28T08:04:47.321Z,4.10
2019-05-28T08:07:09.360Z,7.80
2019-05-28T08:09:38.026Z,3.50
2019-05-28T08:12:06.747Z,4.97
2019-05-28T08:14:35.380Z,6.23
2019-05-28T08:17:04.045Z,7.80
2019-05-28T08:19:32.723Z,6.60
2019-05-28T08:22:01.999Z,5.07
2019-05-28T08:24:30.551Z,3.20
2019-05-28T08:26:59.473Z,4.07
2019-05-28T08:29:28.041Z,2.80
2019-05-28T08:31:56.629Z,5.67
2019-05-28T08:34:25.576Z,8.10
2019-05-28T08:37:05.060Z,18.40
2019-05-28T08:39:24.433Z,6.87
2019-05-28T08:41:53.059Z,4.97
2019-05-28T08:44:21.704Z,9.03
2019-05-28T08:46:51.686Z,6.77
2019-05-28T08:49:23.822Z,6.47
2019-05-28T08:51:50.523Z,6.57
2019-05-28T08:54:19.097Z,4.23
2019-05-28T08:56:48.057Z,3.23
2019-05-28T08:59:16.610Z,4.97
2019-05-28T09:01:45.205Z,8.33
2019-05-28T09:04:13.855Z,2.83
2019-05-28T09:06:42.463Z,5.00
2019-05-28T09:09:11.524Z,4.57
2019-05-28T09:11:40.163Z,6.97
2019-05-28T09:14:08.750Z,3.13
2019-05-28T09:16:37.401Z,1.83
2019-05-28T09:19:06.110Z,3.23
2019-05-28T09:21:34.688Z,1.70
2019-05-28T09:24:03.403Z,2.87
2019-05-28T09:26:32.114Z,0.50
2019-05-28T09:29:00.785Z,0.53
2019-05-28T09:31:29.427Z,1.57
2019-05-28T09:33:58.013Z,0.57
2019-05-28T09:36:27.101Z,0.37
2019-05-28T09:38:55.683Z,1.57
2019-05-28T09:41:24.400Z,0.97
2019-05-28T09:43:53.376Z,3.40
2019-05-28T09:46:21.952Z,1.27
2019-05-28T09:48:50.519Z,1.40
2019-05-28T09:51:19.186Z,1.97
2019-05-28T09:53:47.741Z,1.13
2019-05-28T09:56:16.329Z,0.87
2019-05-28T09:58:44.943Z,0.50
2019-05-28T10:01:13.782Z,3.03
2019-05-28T10:03:42.798Z,2.33
2019-05-28T10:06:16.888Z,2.20
2019-05-28T10:08:41.627Z,4.03
2019-05-28T10:11:10.262Z,2.73
2019-05-28T10:13:41.466Z,2.70
2019-05-28T10:16:09.467Z,3.70
2019-05-28T10:18:38.003Z,1.33
2019-05-28T10:21:17.537Z,3.20
2019-05-28T10:23:36.871Z,4.13
2019-05-28T10:26:05.843Z,6.60
2019-05-28T10:28:34.857Z,5.10
2019-05-28T10:31:03.439Z,0.80
2019-05-28T10:33:31.992Z,3.47
2019-05-28T10:36:00.579Z,1.40
2019-05-28T10:38:29.148Z,1.07
2019-05-28T10:40:57.823Z,1.43
2019-05-28T10:43:26.457Z,2.70
2019-05-28T10:45:55.083Z,2.97
2019-05-28T10:48:23.605Z,2.93
2019-05-28T10:50:52.197Z,2.70
2019-05-28T10:53:20.824Z,2.93
2019-05-28T10:55:49.429Z,3.43
2019-05-28T10:58:18.143Z,4.67
2019-05-28T11:00:46.741Z,3.27
2019-05-28T11:03:15.298Z,3.27
2019-05-28T11:05:44.273Z,5.27
2019-05-28T11:08:12.827Z,3.90
2019-05-28T11:10:41.403Z,5.40
2019-05-28T11:13:10.439Z,1.90
2019-05-28T11:15:39.053Z,3.17
2019-05-28T11:18:07.630Z,3.33
2019-05-28T11:20:36.346Z,5.27
2019-05-28T11:23:05.072Z,4.97
2019-05-28T11:25:33.749Z,3.63
2019-05-28T11:28:02.435Z,4.40
2019-05-28T11:30:31.125Z,5.70
2019-05-28T11:32:59.780Z,4.90
2019-05-28T11:35:28.724Z,3.97
2019-05-28T11:37:57.652Z,5.23
2019-05-28T11:40:29.795Z,6.10
2019-05-28T11:42:56.617Z,6.37
2019-05-28T11:45:25.334Z,5.03
2019-05-28T11:47:53.969Z,3.37
2019-05-28T11:50:22.688Z,3.60
2019-05-28T11:52:51.264Z,5.43
2019-05-28T11:55:21.616Z,5.33
2019-05-28T11:57:50.136Z,4.03
2019-05-28T12:00:19.733Z,6.33
2019-05-28T12:02:48.439Z,6.90
2019-05-28T12:05:19.053Z,5.10
2019-05-28T12:07:51.357Z,5.93
2019-05-28T12:10:18.582Z,7.80
2019-05-28T12:12:47.194Z,4.30
2019-05-28T12:15:17.719Z,3.90
2019-05-28T12:17:47.093Z,5.30
2019-05-28T12:20:18.006Z,5.60
2019-05-28T12:22:46.745Z,3.53
2019-05-28T12:25:16.663Z,6.60
2019-05-28T12:27:45.234Z,4.33
2019-05-28T12:30:18.529Z,8.07
2019-05-28T12:32:46.388Z,4.87
2019-05-28T12:35:27.303Z,7.30
2019-05-28T12:37:49.797Z,5.00
2019-05-28T12:40:18.382Z,4.13
2019-05-28T12:42:46.998Z,3.40
2019-05-28T12:45:16.823Z,5.30
2019-05-28T12:48:04.430Z,5.93
2019-05-28T12:50:20.292Z,6.77
2019-05-28T12:52:47.897Z,3.73
2019-05-28T12:55:17.950Z,5.40
2019-05-28T12:57:46.604Z,4.13
2019-05-28T13:00:16.028Z,7.00
2019-05-28T13:02:44.680Z,8.07
2019-05-28T13:05:18.777Z,8.00
2019-05-28T13:08:06.353Z,5.43
2019-05-28T13:10:18.712Z,4.63
2019-05-28T13:12:47.454Z,5.80
2019-05-28T13:15:16.140Z,4.73
2019-05-28T13:17:44.719Z,4.63
2019-05-28T13:20:13.736Z,7.60
2019-05-28T13:22:42.533Z,4.07
2019-05-28T13:25:11.546Z,4.57
2019-05-28T13:27:40.478Z,3.80
2019-05-28T13:30:13.772Z,7.93
2019-05-28T13:32:42.999Z,2.97
2019-05-28T13:35:13.020Z,4.40
2019-05-28T13:37:41.628Z,1.23
2019-05-28T13:40:11.670Z,2.87
2019-05-28T13:42:40.574Z,1.77
2019-05-28T13:45:11.237Z,2.40
2019-05-28T13:47:39.791Z,2.47
2019-05-28T13:50:11.834Z,4.03
2019-05-28T13:52:40.948Z,3.03
2019-05-28T13:55:10.868Z,2.73
2019-05-28T13:57:40.020Z,1.47
2019-05-28T14:00:11.681Z,2.97
2019-05-28T14:02:45.706Z,1.47
2019-05-28T14:05:12.000Z,1.40
2019-05-28T14:07:40.686Z,3.17
2019-05-28T14:10:10.121Z,1.60
2019-05-28T14:12:38.816Z,3.43
2019-05-28T14:15:08.338Z,1.63
2019-05-28T14:17:36.991Z,2.37
2019-05-28T14:20:10.589Z,2.00
2019-05-28T14:22:39.248Z,1.67
2019-05-28T14:25:09.549Z,2.30
2019-05-28T14:27:38.206Z,2.03
2019-05-28T14:30:09.175Z,2.10
2019-05-28T14:32:38.323Z,1.90
2019-05-28T14:35:07.248Z,1.23
2019-05-28T14:37:35.937Z,1.47
2019-05-28T14:40:06.315Z,1.17
2019-05-28T14:42:35.044Z,3.97
2019-05-28T14:45:05.153Z,1.90
2019-05-28T14:47:33.781Z,2.10
2019-05-28T14:50:02.392Z,1.70
2019-05-28T14:52:31.051Z,4.23
2019-05-28T14:54:59.622Z,4.93
2019-05-28T14:57:28.220Z,1.42
2019-05-28T14:59:56.785Z,2.25
2019-05-28T15:02:25.681Z,1.55
2019-05-28T15:04:54.269Z,2.02
2019-05-28T15:07:22.835Z,3.47
2019-05-28T15:09:51.414Z,2.77
2019-05-28T15:12:19.996Z,2.15
2019-05-28T15:14:48.574Z,4.67
2019-05-28T15:17:17.174Z,3.43
2019-05-28T15:19:45.863Z,2.13
2019-05-28T15:22:14.448Z,3.23
2019-05-28T15:24:43.083Z,3.87
2019-05-28T15:27:11.774Z,4.03
2019-05-28T15:29:40.360Z,4.07
2019-05-28T15:32:08.932Z,2.13
2019-05-28T15:34:37.491Z,4.17
2019-05-28T15:37:06.121Z,3.63
2019-05-28T15:39:39.669Z,1.60
2019-05-28T15:42:05.368Z,3.40
2019-05-28T15:44:33.922Z,3.60
2019-05-28T15:47:02.500Z,4.43
2019-05-28T15:49:31.058Z,5.20
2019-05-28T15:52:07.814Z,6.13
2019-05-28T15:54:29.933Z,3.63
2019-05-28T15:56:58.568Z,5.57
2019-05-28T15:59:27.240Z,3.53
2019-05-28T16:01:55.783Z,4.40
2019-05-28T16:04:24.353Z,3.03
2019-05-28T16:06:52.910Z,2.37
2019-05-28T16:09:21.506Z,2.50
2019-05-28T16:11:50.068Z,2.50
2019-05-28T16:14:18.731Z,1.53
2019-05-28T16:16:47.294Z,1.30
2019-05-28T16:19:15.889Z,3.20
2019-05-28T16:21:44.446Z,1.17
2019-05-28T16:24:13.017Z,0.97
2019-05-28T16:26:41.577Z,1.80
2019-05-28T16:29:10.263Z,2.57
2019-05-28T16:31:38.806Z,3.43
2019-05-28T16:34:07.466Z,2.57
2019-05-28T16:36:36.023Z,2.30
2019-05-28T16:39:07.747Z,2.83
2019-05-28T16:41:36.666Z,3.37
2019-05-28T16:44:06.495Z,3.07
2019-05-28T16:46:35.121Z,1.87
2019-05-28T16:49:03.682Z,3.93
2019-05-28T16:51:32.293Z,3.67
2019-05-28T16:54:17.819Z,2.23
2019-05-28T16:56:31.117Z,4.90
2019-05-28T16:59:00.070Z,3.77
2019-05-28T17:01:28.655Z,4.33
2019-05-28T17:03:57.194Z,5.77
2019-05-28T17:06:25.919Z,4.33
2019-05-28T17:08:54.484Z,6.30
2019-05-28T17:11:27.318Z,8.33
2019-05-28T17:13:53.364Z,5.57
2019-05-28T17:16:21.954Z,6.37
2019-05-28T17:18:50.526Z,5.63
2019-05-28T17:21:19.193Z,6.30
2019-05-28T17:23:47.768Z,6.23
2019-05-28T17:26:16.533Z,4.50
2019-05-28T17:28:45.445Z,4.03
2019-05-28T17:31:14.013Z,4.33
2019-05-28T17:33:42.948Z,3.27
2019-05-28T17:36:11.501Z,3.70
2019-05-28T17:38:40.127Z,7.13
2019-05-28T17:41:08.692Z,9.07
2019-05-28T17:43:37.266Z,7.27
2019-05-28T17:46:05.925Z,8.43
2019-05-28T17:48:34.788Z,7.50
2019-05-28T17:51:03.337Z,8.20
2019-05-28T17:53:32.012Z,6.57
2019-05-28T17:56:00.563Z,4.30
2019-05-28T17:58:31.139Z,5.47
2019-05-28T18:00:59.777Z,4.93
2019-05-28T18:03:28.361Z,5.77
2019-05-28T18:05:57.023Z,6.50
2019-05-28T18:08:29.225Z,8.63
2019-05-28T18:11:04.510Z,5.73
2019-05-28T18:13:28.488Z,9.30
2019-05-28T18:15:56.350Z,9.47
2019-05-28T18:18:24.916Z,11.23
2019-05-28T18:20:53.563Z,4.47
2019-05-28T18:23:22.139Z,5.67
2019-05-28T18:25:50.709Z,9.27
2019-05-28T18:28:19.347Z,8.53
2019-05-28T18:30:47.928Z,5.83
2019-05-28T18:33:16.520Z,7.50
2019-05-28T18:35:45.155Z,4.60
2019-05-28T18:38:13.710Z,8.00
2019-05-28T18:40:42.282Z,5.77
2019-05-28T18:43:10.860Z,5.97
2019-05-28T18:45:39.550Z,2.97
2019-05-28T18:48:08.164Z,8.60
2019-05-28T18:50:36.743Z,9.47
2019-05-28T18:53:05.736Z,5.87
2019-05-28T18:55:34.486Z,4.33
2019-05-28T18:58:03.270Z,3.90
2019-05-28T19:00:31.861Z,5.40
2019-05-28T19:03:00.452Z,5.83
2019-05-28T19:05:29.397Z,5.23
2019-05-28T19:07:57.978Z,8.03
2019-05-28T19:10:26.602Z,5.60
2019-05-28T19:12:58.144Z,5.97
2019-05-28T19:15:25.631Z,6.87
2019-05-28T19:17:54.241Z,6.00
2019-05-28T19:20:23.161Z,9.13
2019-05-28T19:22:52.158Z,7.87
2019-05-28T19:25:20.894Z,5.37
2019-05-28T19:27:49.510Z,5.73
2019-05-28T19:30:21.411Z,7.13
2019-05-28T19:32:50.468Z,7.63
2019-05-28T19:35:19.086Z,7.87
2019-05-28T19:37:48.128Z,9.77
2019-05-28T19:40:20.051Z,11.40
2019-05-28T19:42:48.627Z,9.30
2019-05-28T19:45:17.276Z,5.43
2019-05-28T19:47:45.784Z,8.07
2019-05-28T19:50:14.539Z,7.97
2019-05-28T19:52:43.090Z,7.03
2019-05-28T19:55:12.213Z,10.37
2019-05-28T19:57:40.790Z,10.53
2019-05-28T20:00:10.130Z,8.00
2019-05-28T20:02:38.696Z,7.40
2019-05-28T20:05:08.413Z,11.87
2019-05-28T20:07:37.020Z,10.77
2019-05-28T20:10:07.008Z,11.57
2019-05-28T20:12:35.683Z,9.30
2019-05-28T20:15:09.624Z,9.00
2019-05-28T20:17:38.351Z,8.53
2019-05-28T20:20:07.682Z,9.27
2019-05-28T20:22:36.378Z,9.80
2019-05-28T20:25:08.731Z,7.90
2019-05-28T20:27:37.483Z,9.93
2019-05-28T20:30:09.405Z,13.17
2019-05-28T20:32:38.220Z,9.63
2019-05-28T20:35:09.661Z,13.63
2019-05-28T20:37:38.428Z,9.07
2019-05-28T20:40:10.234Z,10.50
2019-05-28T20:42:39.081Z,8.87
2019-05-28T20:45:09.159Z,11.57
2019-05-28T20:47:37.973Z,7.10
2019-05-28T20:50:09.420Z,10.37
2019-05-28T20:52:38.268Z,9.10
2019-05-28T20:55:07.523Z,11.93
2019-05-28T20:57:36.147Z,8.10
2019-05-28T21:00:08.972Z,10.30
2019-05-28T21:02:37.749Z,11.50
2019-05-28T21:05:08.186Z,13.97
2019-05-28T21:07:36.900Z,7.70
2019-05-28T21:10:08.155Z,12.03
2019-05-28T21:12:43.772Z,8.00
2019-05-28T21:15:10.766Z,12.27
2019-05-28T21:17:39.508Z,14.37
2019-05-28T21:20:08.643Z,12.17
2019-05-28T21:22:37.307Z,10.80
2019-05-28T21:25:06.705Z,10.60
2019-05-28T21:27:35.484Z,8.93
2019-05-28T21:30:06.245Z,9.80
2019-05-28T21:32:34.904Z,9.43
2019-05-28T21:35:04.346Z,9.43
2019-05-28T21:37:33.080Z,12.60
2019-05-28T21:40:02.146Z,10.30
2019-05-28T21:42:30.820Z,11.03
2019-05-28T21:45:00.153Z,8.03
2019-05-28T21:47:28.925Z,10.80
2019-05-28T21:49:59.397Z,9.70
2019-05-28T21:52:28.108Z,13.00
2019-05-28T21:54:57.207Z,9.23
2019-05-28T21:57:26.231Z,9.47
2019-05-28T21:59:55.676Z,10.70
2019-05-28T22:02:24.525Z,10.57
2019-05-28T22:04:53.083Z,12.00
2019-05-28T22:07:21.798Z,8.97
2019-05-28T22:09:50.440Z,7.77
2019-05-28T22:12:19.089Z,10.27
2019-05-28T22:14:47.637Z,8.70
2019-05-28T22:17:16.227Z,11.33
2019-05-28T22:19:44.869Z,14.87
2019-05-28T22:22:13.465Z,8.47
2019-05-28T22:24:42.031Z,8.60
2019-05-28T22:27:10.892Z,14.53
2019-05-28T22:29:39.462Z,9.23
2019-05-28T22:32:08.703Z,11.93
2019-05-28T22:34:37.259Z,9.60
2019-05-28T22:37:05.948Z,9.47
2019-05-28T22:39:34.577Z,8.77
2019-05-28T22:42:03.816Z,11.27
2019-05-28T22:44:32.519Z,9.77
2019-05-28T22:47:01.554Z,6.23
2019-05-28T22:49:30.131Z,14.33
2019-05-28T22:51:59.718Z,10.63
2019-05-28T22:54:28.745Z,12.67
2019-05-28T22:56:57.997Z,8.50
2019-05-28T22:59:26.581Z,9.90
2019-05-28T23:01:55.146Z,7.93
2019-05-28T23:04:23.725Z,9.53
2019-05-28T23:06:52.606Z,11.03
2019-05-28T23:09:21.210Z,10.30
2019-05-28T23:11:50.105Z,10.77
2019-05-28T23:14:18.978Z,7.67
2019-05-28T23:16:47.547Z,10.13
2019-05-28T23:19:16.130Z,10.10
2019-05-28T23:21:44.706Z,11.83
2019-05-28T23:24:13.290Z,9.60
2019-05-28T23:26:42.232Z,8.67
2019-05-28T23:29:11.920Z,8.47
2019-05-28T23:31:40.591Z,10.10
2019-05-28T23:34:10.236Z,8.77
2019-05-28T23:36:38.934Z,10.93
2019-05-28T23:39:08.979Z,11.97
2019-05-28T23:41:37.783Z,13.63
2019-05-28T23:44:07.482Z,10.47
2019-05-28T23:46:36.126Z,12.27
2019-05-28T23:49:04.771Z,9.67
2019-05-28T23:51:33.332Z,11.17
2019-05-28T23:54:01.919Z,10.70
2019-05-28T23:56:30.490Z,11.00
2019-05-28T23:58:59.395Z,12.77
